Thunder radar more information blitzortung!


Radar de pluja more information rain snow radar


Visita la nostra xarxa de llocs de meteo:

Template documentation
and downloads

And another site



No particular awareness of the weather is required.    There are no Weather-warnings

Pagina Historial Weather Underground text

Diari Resum Marc 25, 2016 Unitats:  Mètric    Imperial   Tant
« Previous Dia
SegĂźent Dia »
Diari Setmana Mensual Anual Personalitzada
  Maxima: Minima: Media:
Temperatura: 19.1 °C 6.0 °C 12.7 °C
Punt de rosada: 7.9 °C 1.6 °C 6.5 °C
Humitat: 83 % 45 % 67 %
Wind Speed: 24.1 km/h 0.0 km/h 5.7 km/h
RĂ fegues de vent: 24.1 km/h - -
Vent:- - East
Pression baro: 1022.9 hPa 1018.8 hPa -
Precipitacions: 0.0 mm    
Historical Graphs
 
 
Dades de taula per Marc 25, 2016
Temps Temperatura Punt de rosada Pression baro Vent Wind Speed RĂ fegues de vent Humitat Rainfall Rate (Hourly)
00:00 6.1 °C 1.6 °C 1018.8 hPa WSW 1.6 km/h 4.8 km/h 73 % 0.0 mm
00:02 9.5 °C 3.4 °C 1018.8 hPa West 1.9 km/h 1.9 km/h 66 % 0.0 mm
00:07 9.5 °C 3.7 °C 1018.8 hPa West 1.9 km/h 1.9 km/h 67 % 0.0 mm
00:10 6.1 °C 1.8 °C 1019.9 hPa SW 1.6 km/h 3.2 km/h 74 % 0.0 mm
00:12 9.4 °C 3.6 °C 1018.8 hPa Calm     67 % 0.0 mm
00:17 9.3 °C 3.5 °C 1018.8 hPa Calm     67 % 0.0 mm
00:20 6.0 °C 1.9 °C 1019.9 hPa Calm     75 % 0.0 mm
00:22 9.2 °C 3.6 °C 1018.8 hPa WNW 1.9 km/h 1.9 km/h 68 % 0.0 mm
00:27 9.1 °C 3.5 °C 1018.8 hPa WNW 1.4 km/h   68 % 0.0 mm
00:30 6.0 °C 1.9 °C 1019.9 hPa Calm     75 % 0.0 mm
00:32 9.1 °C 3.5 °C 1018.8 hPa West 3.7 km/h 3.7 km/h 68 % 0.0 mm
00:37 9.0 °C 3.4 °C 1018.8 hPa West 1.9 km/h 1.9 km/h 68 % 0.0 mm
00:40 6.0 °C 1.9 °C 1019.9 hPa Calm     75 % 0.0 mm
00:42 9.0 °C 3.4 °C 1018.8 hPa SW 1.9 km/h 1.9 km/h 68 % 0.0 mm
00:50 6.1 °C 2.0 °C 1019.9 hPa Calm   1.6 km/h 75 % 0.0 mm
01:00 6.1 °C 2.0 °C 1019.9 hPa Calm   1.6 km/h 75 % 0.0 mm
01:10 6.2 °C 2.1 °C 1019.9 hPa Calm   3.2 km/h 75 % 0.0 mm
01:20 6.1 °C 1.8 °C 1019.9 hPa Calm     74 % 0.0 mm
01:30 6.2 °C 1.9 °C 1019.9 hPa Calm   3.2 km/h 74 % 0.0 mm
01:40 6.4 °C 1.9 °C 1019.9 hPa WNW 1.6 km/h 1.6 km/h 73 % 0.0 mm
01:50 6.6 °C 2.1 °C 1019.9 hPa WSW 1.6 km/h 3.2 km/h 73 % 0.0 mm
02:00 7.0 °C 2.3 °C 1019.9 hPa SW 1.6 km/h 3.2 km/h 72 % 0.0 mm
02:10 8.0 °C 3.4 °C 1019.9 hPa SW 1.6 km/h 3.2 km/h 73 % 0.0 mm
02:20 8.9 °C 3.7 °C 1019.9 hPa NNE 3.2 km/h 6.4 km/h 70 % 0.0 mm
02:30 9.3 °C 3.7 °C 1019.9 hPa NNE 3.2 km/h 4.8 km/h 68 % 0.0 mm
02:40 9.6 °C 4.0 °C 1019.9 hPa NE 1.6 km/h 3.2 km/h 68 % 0.0 mm
02:50 9.7 °C 3.9 °C 1019.9 hPa North 1.6 km/h 4.8 km/h 67 % 0.0 mm
03:00 9.8 °C 3.9 °C 1020.9 hPa WNW 1.6 km/h 3.2 km/h 67 % 0.0 mm
03:10 10.1 °C 4.1 °C 1020.9 hPa WNW 1.6 km/h 3.2 km/h 66 % 0.0 mm
03:20 10.7 °C 4.6 °C 1020.9 hPa NE 1.6 km/h 3.2 km/h 66 % 0.0 mm
03:30 11.2 °C 4.8 °C 1021.9 hPa ENE 3.2 km/h 4.8 km/h 65 % 0.0 mm
03:40 11.7 °C 5.3 °C 1020.9 hPa NE 1.6 km/h 4.8 km/h 65 % 0.0 mm
03:50 12.1 °C 5.3 °C 1020.9 hPa NNE 3.2 km/h 6.4 km/h 63 % 0.0 mm
04:00 12.2 °C 5.1 °C 1020.9 hPa NNE 3.2 km/h 6.4 km/h 62 % 0.0 mm
04:10 12.2 °C 4.9 °C 1020.9 hPa NNE 3.2 km/h 6.4 km/h 61 % 0.0 mm
04:20 12.8 °C 5.0 °C 1020.9 hPa NE 4.8 km/h 6.4 km/h 59 % 0.0 mm
04:30 13.4 °C 5.8 °C 1020.9 hPa NE 3.2 km/h 6.4 km/h 60 % 0.0 mm
04:40 14.0 °C 6.1 °C 1020.9 hPa NE 1.6 km/h 3.2 km/h 59 % 0.0 mm
04:50 14.0 °C 6.1 °C 1020.9 hPa NE 1.6 km/h 6.4 km/h 59 % 0.0 mm
05:00 14.7 °C 6.5 °C 1020.9 hPa SE 3.2 km/h 4.8 km/h 58 % 0.0 mm
05:10 14.6 °C 6.4 °C 1020.9 hPa East 8.0 km/h 9.7 km/h 58 % 0.0 mm
05:20 14.8 °C 6.6 °C 1020.9 hPa East 1.6 km/h 4.8 km/h 58 % 0.0 mm
05:30 15.0 °C 6.8 °C 1020.9 hPa ENE 3.2 km/h 8.0 km/h 58 % 0.0 mm
05:50 16.1 °C 7.6 °C 1020.9 hPa ESE 9.7 km/h 9.7 km/h 57 % 0.0 mm
06:00 16.0 °C 7.2 °C 1020.9 hPa East 4.8 km/h 6.4 km/h 56 % 0.0 mm
06:05 15.8 °C 6.8 °C 1020.9 hPa East 3.2 km/h 6.4 km/h 55 % 0.0 mm
12:05 15.9 °C 6.9 °C 1020.9 hPa East 6.4 km/h 6.4 km/h 55 % 0.0 mm
12:10 16.1 °C 6.8 °C 1019.9 hPa ESE 5.6 km/h 5.6 km/h 54 % 0.0 mm
12:15 16.6 °C 7.5 °C 1019.9 hPa ENE 3.7 km/h 3.7 km/h 55 % 0.0 mm
12:20 16.5 °C 7.2 °C 1019.9 hPa East 7.4 km/h 7.4 km/h 54 % 0.0 mm
12:25 16.4 °C 7.1 °C 1019.9 hPa ESE 9.5 km/h 9.5 km/h 54 % 0.0 mm
12:30 16.4 °C 6.8 °C 1019.9 hPa WSW 7.4 km/h 7.4 km/h 53 % 0.0 mm
12:35 17.1 °C 7.2 °C 1019.9 hPa East 13.7 km/h 13.7 km/h 52 % 0.0 mm
12:40 17.1 °C 7.2 °C 1018.8 hPa East 9.3 km/h 9.3 km/h 52 % 0.0 mm
12:45 17.0 °C 6.8 °C 1018.8 hPa WSW 9.3 km/h 9.3 km/h 51 % 0.0 mm
12:50 17.3 °C 7.1 °C 1018.8 hPa ENE 7.6 km/h 7.6 km/h 51 % 0.0 mm
12:55 17.2 °C 6.9 °C 1019.9 hPa East 4.7 km/h 4.7 km/h 51 % 0.0 mm
13:00 17.3 °C 7.1 °C 1019.9 hPa ESE 9.7 km/h 9.7 km/h 51 % 0.0 mm
13:10 17.5 °C 6.9 °C 1019.9 hPa ENE 11.1 km/h 11.1 km/h 50 % 0.0 mm
13:15 17.5 °C 6.9 °C 1019.9 hPa ENE 5.6 km/h 5.6 km/h 50 % 0.0 mm
13:20 17.8 °C 7.2 °C 1019.9 hPa ENE 6.4 km/h 6.4 km/h 50 % 0.0 mm
13:25 17.8 °C 6.9 °C 1019.9 hPa South 7.4 km/h 7.4 km/h 49 % 0.0 mm
13:30 18.3 °C 7.4 °C 1019.9 hPa ENE 7.4 km/h 7.4 km/h 49 % 0.0 mm
13:35 18.6 °C 7.9 °C 1019.9 hPa SW 5.6 km/h 5.6 km/h 50 % 0.0 mm
13:40 19.0 °C 7.4 °C 1019.9 hPa SW 7.4 km/h 7.4 km/h 47 % 0.0 mm
13:45 18.9 °C 7.0 °C 1019.9 hPa SSW 7.4 km/h 7.4 km/h 46 % 0.0 mm
13:50 19.1 °C 7.2 °C 1019.9 hPa NW 7.4 km/h 7.4 km/h 46 % 0.0 mm
13:55 19.0 °C 6.8 °C 1019.9 hPa South 5.0 km/h 5.0 km/h 45 % 0.0 mm
14:00 19.0 °C 6.8 °C 1019.9 hPa ESE 5.6 km/h 5.6 km/h 45 % 0.0 mm
14:10 18.7 °C 6.8 °C 1018.8 hPa East 13.0 km/h 13.0 km/h 46 % 0.0 mm
14:15 18.2 °C 7.3 °C 1018.8 hPa ESE 20.4 km/h 20.4 km/h 49 % 0.0 mm
14:20 17.3 °C 6.8 °C 1018.8 hPa ESE 22.2 km/h 22.2 km/h 50 % 0.0 mm
14:25 17.0 °C 6.5 °C 1019.9 hPa ENE 18.5 km/h 18.5 km/h 50 % 0.0 mm
14:30 16.9 °C 7.0 °C 1019.9 hPa ESE 24.1 km/h 24.1 km/h 52 % 0.0 mm
14:40 17.0 °C 7.1 °C 1019.9 hPa East 13.0 km/h 13.0 km/h 52 % 0.0 mm
14:45 16.8 °C 7.2 °C 1019.9 hPa East 14.8 km/h 14.8 km/h 53 % 0.0 mm
14:50 16.7 °C 7.1 °C 1019.9 hPa ESE 11.1 km/h 11.1 km/h 53 % 0.0 mm
14:55 16.9 °C 7.5 °C 1020.9 hPa East 9.3 km/h 9.3 km/h 54 % 0.0 mm
15:00 17.3 °C 7.6 °C 1020.9 hPa ESE 13.0 km/h 13.0 km/h 53 % 0.0 mm
15:05 17.2 °C 7.6 °C 1020.9 hPa East 15.8 km/h 15.8 km/h 53 % 0.0 mm
15:10 16.5 °C 7.2 °C 1020.9 hPa ESE 22.2 km/h 22.2 km/h 54 % 0.0 mm
15:15 16.5 °C 7.2 °C 1020.9 hPa East 13.0 km/h 13.0 km/h 54 % 0.0 mm
15:20 16.2 °C 7.2 °C 1020.9 hPa ENE 11.1 km/h 11.1 km/h 55 % 0.0 mm
15:25 15.9 °C 6.9 °C 1021.9 hPa ESE 7.4 km/h 8.7 km/h 55 % 0.0 mm
15:30 15.9 °C 7.1 °C 1021.9 hPa SSE 3.9 km/h 6.1 km/h 56 % 0.0 mm
15:35 15.8 °C 7.1 °C 1021.9 hPa SE 5.6 km/h 7.6 km/h 56 % 0.0 mm
15:40 15.4 °C 6.7 °C 1021.9 hPa SE 5.8 km/h 7.6 km/h 56 % 0.0 mm
15:45 15.4 °C 6.9 °C 1021.9 hPa SE 5.8 km/h 7.6 km/h 57 % 0.0 mm
15:50 15.3 °C 7.1 °C 1021.9 hPa SE 5.8 km/h 7.6 km/h 58 % 0.0 mm
15:55 15.2 °C 7.2 °C 1021.9 hPa SE 5.8 km/h 7.6 km/h 59 % 0.0 mm
16:00 14.8 °C 7.1 °C 1021.9 hPa SE 5.8 km/h 7.6 km/h 60 % 0.0 mm
16:05 14.8 °C 7.1 °C 1021.9 hPa SE 5.8 km/h 7.6 km/h 60 % 0.0 mm
16:10 14.6 °C 6.9 °C 1021.9 hPa SE 5.8 km/h 7.6 km/h 60 % 0.0 mm
16:15 14.5 °C 7.1 °C 1021.9 hPa East 10.0 km/h 10.0 km/h 61 % 0.0 mm
16:20 14.4 °C 6.9 °C 1021.9 hPa East 10.0 km/h 10.0 km/h 61 % 0.0 mm
16:25 14.3 °C 6.9 °C 1021.9 hPa East 10.0 km/h 10.0 km/h 61 % 0.0 mm
16:30 14.3 °C 6.9 °C 1021.9 hPa East 10.0 km/h 10.0 km/h 61 % 0.0 mm
16:35 14.2 °C 7.0 °C 1021.9 hPa East 10.0 km/h 10.0 km/h 62 % 0.0 mm
16:40 14.2 °C 7.0 °C 1021.9 hPa East 10.0 km/h 10.0 km/h 62 % 0.0 mm
16:45 14.2 °C 7.0 °C 1021.9 hPa East 10.0 km/h 10.0 km/h 62 % 0.0 mm
16:50 14.1 °C 7.2 °C 1021.9 hPa East 10.0 km/h 10.0 km/h 63 % 0.0 mm
16:55 13.9 °C 7.2 °C 1021.9 hPa East 10.0 km/h 10.0 km/h 64 % 0.0 mm
17:00 13.7 °C 7.2 °C 1021.9 hPa East 10.0 km/h 10.0 km/h 65 % 0.0 mm
17:05 13.6 °C 7.2 °C 1021.9 hPa NE 7.4 km/h 7.4 km/h 65 % 0.0 mm
17:10 13.4 °C 7.2 °C 1021.9 hPa NE 7.4 km/h 7.4 km/h 66 % 0.0 mm
17:15 13.2 °C 7.2 °C 1021.9 hPa NE 7.4 km/h 7.4 km/h 67 % 0.0 mm
17:20 13.0 °C 7.2 °C 1021.9 hPa NE 7.4 km/h 7.4 km/h 68 % 0.0 mm
17:25 12.9 °C 7.1 °C 1021.9 hPa NE 7.4 km/h 7.4 km/h 68 % 0.0 mm
17:30 12.7 °C 7.2 °C 1021.9 hPa NE 7.4 km/h 7.4 km/h 69 % 0.0 mm
17:35 12.7 °C 7.2 °C 1021.9 hPa NE 7.4 km/h 7.4 km/h 69 % 0.0 mm
17:45 12.5 °C 7.2 °C 1021.9 hPa NE 7.4 km/h 7.4 km/h 70 % 0.0 mm
17:50 12.5 °C 7.4 °C 1021.9 hPa ENE 7.4 km/h 7.4 km/h 71 % 0.0 mm
17:55 12.5 °C 7.4 °C 1021.9 hPa ENE 5.6 km/h 5.8 km/h 71 % 0.0 mm
18:00 12.4 °C 7.3 °C 1021.9 hPa ESE 5.6 km/h 5.6 km/h 71 % 0.0 mm
18:05 12.3 °C 7.4 °C 1021.9 hPa East 7.4 km/h 7.4 km/h 72 % 0.0 mm
18:10 12.3 °C 7.4 °C 1021.9 hPa ESE 5.8 km/h 5.8 km/h 72 % 0.0 mm
18:15 12.3 °C 7.6 °C 1021.9 hPa ESE 5.8 km/h 5.8 km/h 73 % 0.0 mm
18:20 12.3 °C 7.6 °C 1021.9 hPa ESE 5.8 km/h 5.8 km/h 73 % 0.0 mm
18:25 12.3 °C 7.6 °C 1021.9 hPa NE 3.9 km/h 4.2 km/h 73 % 0.0 mm
18:30 12.2 °C 7.5 °C 1021.9 hPa NE 5.3 km/h 5.3 km/h 73 % 0.0 mm
18:35 12.2 °C 7.7 °C 1021.9 hPa NNE 4.2 km/h 6.1 km/h 74 % 0.0 mm
18:40 12.1 °C 7.6 °C 1021.9 hPa NE 7.4 km/h 7.4 km/h 74 % 0.0 mm
18:45 12.1 °C 7.8 °C 1021.9 hPa NNE 5.8 km/h 6.4 km/h 75 % 0.0 mm
18:50 10.4 °C 7.6 °C 1021.9 hPa ENE 4.8 km/h 4.8 km/h 83 % 0.0 mm
18:55 12.0 °C 7.7 °C 1021.9 hPa NNE 5.8 km/h 6.4 km/h 75 % 0.0 mm
19:00 12.0 °C 7.7 °C 1021.9 hPa NNE 5.8 km/h 6.4 km/h 75 % 0.0 mm
19:05 12.0 °C 7.7 °C 1021.9 hPa NNE 5.8 km/h 6.4 km/h 75 % 0.0 mm
19:10 11.9 °C 7.6 °C 1020.9 hPa NNE 5.8 km/h 6.4 km/h 75 % 0.0 mm
19:15 11.9 °C 7.8 °C 1020.9 hPa NNE 5.8 km/h 6.4 km/h 76 % 0.0 mm
19:20 11.9 °C 7.8 °C 1020.9 hPa NNE 5.8 km/h 6.4 km/h 76 % 0.0 mm
19:25 11.8 °C 7.7 °C 1021.9 hPa NNE 5.8 km/h 6.4 km/h 76 % 0.0 mm
19:30 11.9 °C 7.8 °C 1021.9 hPa NNE 5.6 km/h 5.6 km/h 76 % 0.0 mm
19:35 11.8 °C 7.7 °C 1021.9 hPa NNE 4.2 km/h 4.2 km/h 76 % 0.0 mm
19:40 11.8 °C 7.9 °C 1021.9 hPa NNE 4.2 km/h 4.2 km/h 77 % 0.0 mm
19:45 11.8 °C 7.9 °C 1021.9 hPa NNE 4.2 km/h 4.2 km/h 77 % 0.0 mm
19:50 11.8 °C 7.7 °C 1021.9 hPa NNE 4.2 km/h 4.2 km/h 76 % 0.0 mm
19:55 11.8 °C 7.7 °C 1021.9 hPa NNE 4.2 km/h 4.2 km/h 76 % 0.0 mm
20:00 11.8 °C 7.9 °C 1021.9 hPa NNE 4.2 km/h 4.2 km/h 77 % 0.0 mm
20:05 11.8 °C 7.9 °C 1021.9 hPa NNE 4.2 km/h 4.2 km/h 77 % 0.0 mm
20:10 11.8 °C 7.9 °C 1021.9 hPa NNE 4.2 km/h 4.2 km/h 77 % 0.0 mm
20:15 11.8 °C 7.9 °C 1021.9 hPa NNE 4.2 km/h 4.2 km/h 77 % 0.0 mm
20:20 11.7 °C 7.6 °C 1021.9 hPa NNE 4.2 km/h 4.2 km/h 76 % 0.0 mm
20:30 11.7 °C 7.8 °C 1022.9 hPa NNE 4.2 km/h 4.2 km/h 77 % 0.0 mm
20:35 11.7 °C 7.8 °C 1022.9 hPa NNE 4.2 km/h 4.2 km/h 77 % 0.0 mm
20:40 11.6 °C 7.7 °C 1022.9 hPa NNE 4.2 km/h 4.2 km/h 77 % 0.0 mm
20:45 11.6 °C 7.7 °C 1022.9 hPa NNE 4.2 km/h 4.2 km/h 77 % 0.0 mm
20:50 11.6 °C 7.9 °C 1022.9 hPa NNE 4.2 km/h 4.2 km/h 78 % 0.0 mm
20:55 11.6 °C 7.9 °C 1022.9 hPa NNE 4.2 km/h 4.2 km/h 78 % 0.0 mm
21:00 11.6 °C 7.9 °C 1022.9 hPa NNE 4.2 km/h 4.2 km/h 78 % 0.0 mm
21:05 11.6 °C 7.9 °C 1022.9 hPa NNE 4.2 km/h 4.2 km/h 78 % 0.0 mm
21:10 11.6 °C 7.9 °C 1022.9 hPa NNE 4.2 km/h 4.2 km/h 78 % 0.0 mm
21:15 11.6 °C 7.9 °C 1022.9 hPa NNE 4.2 km/h 4.2 km/h 78 % 0.0 mm
21:20 11.6 °C 7.9 °C 1022.9 hPa NNE 4.2 km/h 4.2 km/h 78 % 0.0 mm
21:25 11.6 °C 7.9 °C 1022.9 hPa NNE 4.2 km/h 4.2 km/h 78 % 0.0 mm
21:30 11.5 °C 7.8 °C 1022.9 hPa NNE 4.2 km/h 4.2 km/h 78 % 0.0 mm
21:35 11.5 °C 7.6 °C 1022.9 hPa NNE 4.2 km/h 4.2 km/h 77 % 0.0 mm
21:40 11.5 °C 7.8 °C 1022.9 hPa NNE 4.2 km/h 4.2 km/h 78 % 0.0 mm
21:45 11.5 °C 7.8 °C 1022.9 hPa NNE 4.2 km/h 4.2 km/h 78 % 0.0 mm
21:50 11.5 °C 7.8 °C 1022.9 hPa NNE 4.2 km/h 4.2 km/h 78 % 0.0 mm
21:55 11.5 °C 7.8 °C 1022.9 hPa NNE 4.2 km/h 4.2 km/h 78 % 0.0 mm
22:00 11.5 °C 7.8 °C 1022.9 hPa NNE 4.2 km/h 4.2 km/h 78 % 0.0 mm
22:05 11.4 °C 7.7 °C 1022.9 hPa NNE 4.2 km/h 4.2 km/h 78 % 0.0 mm
22:10 11.3 °C 7.6 °C 1022.9 hPa NNE 4.2 km/h 4.2 km/h 78 % 0.0 mm
22:15 11.2 °C 7.7 °C 1022.9 hPa NNE 4.2 km/h 4.2 km/h 79 % 0.0 mm
22:20 11.1 °C 7.6 °C 1022.9 hPa NNE 4.2 km/h 4.2 km/h 79 % 0.0 mm
22:30 11.0 °C 7.5 °C 1021.9 hPa NNE 4.2 km/h 4.2 km/h 79 % 0.0 mm
22:35 10.9 °C 7.4 °C 1021.9 hPa NNE 4.2 km/h 4.2 km/h 79 % 0.0 mm
22:40 10.8 °C 7.3 °C 1020.9 hPa NNE 4.2 km/h 4.2 km/h 79 % 0.0 mm
22:45 10.8 °C 7.3 °C 1020.9 hPa NNE 4.2 km/h 4.2 km/h 79 % 0.0 mm
22:50 10.7 °C 7.2 °C 1020.9 hPa NNE 4.2 km/h 4.2 km/h 79 % 0.0 mm
22:55 10.6 °C 7.3 °C 1021.9 hPa NNE 4.2 km/h 4.2 km/h 80 % 0.0 mm
23:00 10.6 °C 7.3 °C 1021.9 hPa NNE 4.2 km/h 4.2 km/h 80 % 0.0 mm
23:05 10.5 °C 7.0 °C 1021.9 hPa NNE 4.2 km/h 4.2 km/h 79 % 0.0 mm
23:10 10.5 °C 7.2 °C 1021.9 hPa NNE 4.2 km/h 4.2 km/h 80 % 0.0 mm
23:20 10.4 °C 7.1 °C 1021.9 hPa NNE 4.2 km/h 4.2 km/h 80 % 0.0 mm
23:25 10.4 °C 7.1 °C 1021.9 hPa NNE 4.2 km/h 4.2 km/h 80 % 0.0 mm
23:30 10.4 °C 7.1 °C 1021.9 hPa NNE 4.2 km/h 4.2 km/h 80 % 0.0 mm
23:35 10.4 °C 7.3 °C 1021.9 hPa NNE 4.2 km/h 4.2 km/h 81 % 0.0 mm
23:40 10.3 °C 7.2 °C 1021.9 hPa NNE 4.2 km/h 4.2 km/h 81 % 0.0 mm
23:45 10.3 °C 7.2 °C 1021.9 hPa NNE 4.2 km/h 4.2 km/h 81 % 0.0 mm
23:50 10.3 °C 7.2 °C 1021.9 hPa NNE 4.2 km/h 4.2 km/h 81 % 0.0 mm
23:55 10.3 °C 7.3 °C 1021.9 hPa NNE 4.2 km/h 4.2 km/h 82 % 0.0 mm
Meteo Sesrovires
Elogis d' Weather Underground - 3.5 mb

Guio original per  Jim McMurry - jmcmurry@mwt.net Adaptat per a la plantilla per  Wim van der Kuil - Leuven-Template.eu

Trobareu la nostra informacio del temps tambe a:

Weather Underground

AWEKAS